Tropical Cyclones
[Index]
Main Index Home Page Stock Weather Photos Extreme Storms Discussion Storm News and Storm Chasing Reports Tropical Cyclones / Hurricanes / Typhoons Weather Data and Links Wild Fires / Bushfires Weather Observation Techniques Weather Picture Catalogue Tornado Pictures and Reports Stock Video Footage and DVDs for sale
Season 2002-2003 Tropical Cyclone 200307 Track Map
Season 2002-2003 Summaries (Operational Data): [AU] [SIO] [SPAC] [SH]
<<- Previous TC | 2002-2003 Season | Next TC ->>

click for intensity scale information  Lat/long Grid: Show Hide

 Date Labels: Show Hide

Operational Tropical Cyclone Data : JTWC Advisories

Name: 200307
Number: 0307

25 Dec 2002 04:00 UTC to 04 Jan 2003 04:00 UTC

    date/time    lat    long     hPa   cat  kts
2002-12-25 04    3.0    88.0    1005                     
2002-12-25 18    5.1    87.6     999         25          
2002-12-26 00    6.6    87.3     998         30          
2002-12-26 06    7.7    88.5     998         30          
2002-12-26 12    8.1    88.7     998         30          
2002-12-26 18    8.6    88.9     998         30          
2002-12-27 00    9.5    89.1     996         30          
2002-12-27 06    9.5    89.7     996         30          
2002-12-27 12    9.1    90.2     998         30          
2002-12-27 18    9.1    90.8                             
2002-12-28 04    9.2    91.5     998                     
2002-12-28 06    9.4    93.1                             
2002-12-28 18   10.1    93.7                             
2002-12-29 04    9.7    94.1     998                     
2002-12-30 04   10.0    93.0    1000                     
2002-12-31 04   10.0    92.0    1000                     
2003-01-01 04   10.0    91.0    1000                     
2003-01-02 04    8.0    91.0    1002                     
2003-01-03 04   10.0    92.0    1002                     
2003-01-04 04   11.0    91.0    1006                     
Winds are 10-min average.

Tropical cyclone tracks developed by Michael Bath using operational warnings and advisories and Google Maps.


[Australian Severe Weather index] [Copyright Notice] [Email Contacts] [Search This Site] [Privacy Policy]
Document: tropical_cyclone_200307.htm Updated: 2 May 2017